sensor_id;sensor_type;location;lat;lon;timestamp;temperature;humidity
41678;DHT22;27364;49.026;8.712;2023-03-01T00:01:38;-0.20;99.90
41678;DHT22;27364;49.026;8.712;2023-03-01T00:04:03;-0.20;99.90
41678;DHT22;27364;49.026;8.712;2023-03-01T00:06:29;-0.20;99.90
41678;DHT22;27364;49.026;8.712;2023-03-01T00:08:54;-0.30;99.90
41678;DHT22;27364;49.026;8.712;2023-03-01T00:11:26;-0.30;99.90
41678;DHT22;27364;49.026;8.712;2023-03-01T00:13:54;-0.20;99.90
41678;DHT22;27364;49.026;8.712;2023-03-01T00:16:23;-0.20;99.90
41678;DHT22;27364;49.026;8.712;2023-03-01T00:18:49;-0.10;99.90
41678;DHT22;27364;49.026;8.712;2023-03-01T00:21:14;-0.10;99.90
41678;DHT22;27364;49.026;8.712;2023-03-01T00:23:40;-0.10;99.90
41678;DHT22;27364;49.026;8.712;2023-03-01T00:26:08;-0.10;99.90
41678;DHT22;27364;49.026;8.712;2023-03-01T00:28:34;-0.20;99.90
41678;DHT22;27364;49.026;8.712;2023-03-01T00:31:08;-0.30;99.90
41678;DHT22;27364;49.026;8.712;2023-03-01T00:33:34;-0.30;99.90
41678;DHT22;27364;49.026;8.712;2023-03-01T00:36:00;-0.30;99.90
41678;DHT22;27364;49.026;8.712;2023-03-01T00:38:27;-0.40;99.90
41678;DHT22;27364;49.026;8.712;2023-03-01T00:40:52;-0.40;99.90
41678;DHT22;27364;49.026;8.712;2023-03-01T00:43:18;-0.60;99.90
41678;DHT22;27364;49.026;8.712;2023-03-01T00:45:44;-0.50;99.90
41678;DHT22;27364;49.026;8.712;2023-03-01T00:48:09;-0.60;99.90
41678;DHT22;27364;49.026;8.712;2023-03-01T00:50:35;-0.60;99.90
41678;DHT22;27364;49.026;8.712;2023-03-01T00:53:00;-0.60;99.90
41678;DHT22;27364;49.026;8.712;2023-03-01T00:55:26;-0.60;99.90
41678;DHT22;27364;49.026;8.712;2023-03-01T00:57:51;-0.60;99.90
41678;DHT22;27364;49.026;8.712;2023-03-01T01:00:18;-0.60;99.90
41678;DHT22;27364;49.026;8.712;2023-03-01T01:02:44;-0.60;99.90
41678;DHT22;27364;49.026;8.712;2023-03-01T01:05:11;-0.60;99.90
41678;DHT22;27364;49.026;8.712;2023-03-01T01:07:37;-0.70;99.90
41678;DHT22;27364;49.026;8.712;2023-03-01T01:10:03;-0.70;99.90
41678;DHT22;27364;49.026;8.712;2023-03-01T01:12:29;-0.70;99.90
41678;DHT22;27364;49.026;8.712;2023-03-01T01:14:54;-0.70;99.90
41678;DHT22;27364;49.026;8.712;2023-03-01T01:17:20;-0.60;99.90
41678;DHT22;27364;49.026;8.712;2023-03-01T01:19:46;-0.70;99.90
41678;DHT22;27364;49.026;8.712;2023-03-01T01:22:11;-0.60;99.90
41678;DHT22;27364;49.026;8.712;2023-03-01T01:24:37;-0.60;99.90
41678;DHT22;27364;49.026;8.712;2023-03-01T01:27:02;-0.50;99.90
41678;DHT22;27364;49.026;8.712;2023-03-01T01:29:28;-0.50;99.90
41678;DHT22;27364;49.026;8.712;2023-03-01T01:31:53;-0.50;99.90
41678;DHT22;27364;49.026;8.712;2023-03-01T01:34:20;-0.50;99.90
41678;DHT22;27364;49.026;8.712;2023-03-01T01:36:51;-0.50;99.90
41678;DHT22;27364;49.026;8.712;2023-03-01T01:39:18;-0.50;99.90
41678;DHT22;27364;49.026;8.712;2023-03-01T01:41:44;-0.40;99.90
41678;DHT22;27364;49.026;8.712;2023-03-01T01:44:25;-0.50;99.90
41678;DHT22;27364;49.026;8.712;2023-03-01T01:46:57;-0.50;99.90
41678;DHT22;27364;49.026;8.712;2023-03-01T01:49:46;-0.40;99.90
41678;DHT22;27364;49.026;8.712;2023-03-01T01:52:24;-0.40;99.90
41678;DHT22;27364;49.026;8.712;2023-03-01T01:54:55;-0.40;99.90
41678;DHT22;27364;49.026;8.712;2023-03-01T01:57:27;-0.40;99.90
41678;DHT22;27364;49.026;8.712;2023-03-01T01:59:58;-0.40;99.90
41678;DHT22;27364;49.026;8.712;2023-03-01T02:02:25;-0.50;99.90
41678;DHT22;27364;49.026;8.712;2023-03-01T02:05:03;-0.50;99.90
41678;DHT22;27364;49.026;8.712;2023-03-01T02:07:34;-0.50;99.90
41678;DHT22;27364;49.026;8.712;2023-03-01T02:10:00;-0.60;99.90
41678;DHT22;27364;49.026;8.712;2023-03-01T02:12:27;-0.60;99.90
41678;DHT22;27364;49.026;8.712;2023-03-01T02:14:53;-0.70;99.90
41678;DHT22;27364;49.026;8.712;2023-03-01T02:17:19;-0.70;99.90
41678;DHT22;27364;49.026;8.712;2023-03-01T02:22:37;-0.70;99.90
41678;DHT22;27364;49.026;8.712;2023-03-01T02:30:42;-0.80;99.90
41678;DHT22;27364;49.026;8.712;2023-03-01T02:33:28;-0.80;99.90
41678;DHT22;27364;49.026;8.712;2023-03-01T02:36:02;-0.60;99.90
41678;DHT22;27364;49.026;8.712;2023-03-01T02:38:30;-0.60;99.90
41678;DHT22;27364;49.026;8.712;2023-03-01T02:40:57;-0.70;99.90
41678;DHT22;27364;49.026;8.712;2023-03-01T02:43:25;-0.70;99.90
41678;DHT22;27364;49.026;8.712;2023-03-01T02:45:53;-0.70;99.90
41678;DHT22;27364;49.026;8.712;2023-03-01T02:48:19;-0.80;99.90
41678;DHT22;27364;49.026;8.712;2023-03-01T02:53:45;-0.90;99.90
41678;DHT22;27364;49.026;8.712;2023-03-01T02:56:14;-1.00;99.90
41678;DHT22;27364;49.026;8.712;2023-03-01T02:58:41;-1.00;99.90
41678;DHT22;27364;49.026;8.712;2023-03-01T03:01:11;-1.00;99.90
41678;DHT22;27364;49.026;8.712;2023-03-01T03:03:36;-1.00;99.90
41678;DHT22;27364;49.026;8.712;2023-03-01T03:06:02;-0.90;99.90
41678;DHT22;27364;49.026;8.712;2023-03-01T03:08:27;-0.90;99.90
41678;DHT22;27364;49.026;8.712;2023-03-01T03:10:53;-1.00;99.90
41678;DHT22;27364;49.026;8.712;2023-03-01T03:13:18;-1.00;99.90
41678;DHT22;27364;49.026;8.712;2023-03-01T03:15:44;-1.00;99.90
41678;DHT22;27364;49.026;8.712;2023-03-01T03:18:12;-1.00;99.90
41678;DHT22;27364;49.026;8.712;2023-03-01T03:20:39;-0.90;99.90
41678;DHT22;27364;49.026;8.712;2023-03-01T03:23:06;-0.90;99.90
41678;DHT22;27364;49.026;8.712;2023-03-01T03:25:32;-0.90;99.90
41678;DHT22;27364;49.026;8.712;2023-03-01T03:27:58;-0.90;99.90
41678;DHT22;27364;49.026;8.712;2023-03-01T03:30:26;-0.90;99.90
41678;DHT22;27364;49.026;8.712;2023-03-01T03:32:52;-1.00;99.90
41678;DHT22;27364;49.026;8.712;2023-03-01T03:35:29;-1.10;99.90
41678;DHT22;27364;49.026;8.712;2023-03-01T03:37:55;-1.00;99.90
41678;DHT22;27364;49.026;8.712;2023-03-01T03:40:36;-0.90;99.90
41678;DHT22;27364;49.026;8.712;2023-03-01T03:43:03;-0.90;99.90
41678;DHT22;27364;49.026;8.712;2023-03-01T03:45:29;-0.90;99.90
41678;DHT22;27364;49.026;8.712;2023-03-01T03:47:55;-1.10;99.90
41678;DHT22;27364;49.026;8.712;2023-03-01T03:50:20;-1.10;99.90
41678;DHT22;27364;49.026;8.712;2023-03-01T03:52:46;-1.10;99.90
41678;DHT22;27364;49.026;8.712;2023-03-01T03:55:12;-1.10;99.90
41678;DHT22;27364;49.026;8.712;2023-03-01T03:57:41;-1.30;99.90
41678;DHT22;27364;49.026;8.712;2023-03-01T04:00:10;-1.20;99.90
41678;DHT22;27364;49.026;8.712;2023-03-01T04:02:42;-1.30;99.90
41678;DHT22;27364;49.026;8.712;2023-03-01T04:05:10;-1.40;99.90
41678;DHT22;27364;49.026;8.712;2023-03-01T04:07:37;-1.50;99.90
41678;DHT22;27364;49.026;8.712;2023-03-01T04:10:09;-1.50;99.90
41678;DHT22;27364;49.026;8.712;2023-03-01T04:12:35;-1.50;99.90
41678;DHT22;27364;49.026;8.712;2023-03-01T04:15:06;-1.60;99.90
41678;DHT22;27364;49.026;8.712;2023-03-01T04:17:45;-1.60;99.90
41678;DHT22;27364;49.026;8.712;2023-03-01T04:20:13;-1.70;99.90
41678;DHT22;27364;49.026;8.712;2023-03-01T04:22:40;-1.60;99.90
41678;DHT22;27364;49.026;8.712;2023-03-01T04:25:06;-1.70;99.90
41678;DHT22;27364;49.026;8.712;2023-03-01T04:27:36;-1.70;99.90
41678;DHT22;27364;49.026;8.712;2023-03-01T04:30:03;-1.70;99.90
41678;DHT22;27364;49.026;8.712;2023-03-01T04:32:29;-1.70;99.90
41678;DHT22;27364;49.026;8.712;2023-03-01T04:34:54;-1.80;99.90
41678;DHT22;27364;49.026;8.712;2023-03-01T04:37:20;-1.80;99.90
41678;DHT22;27364;49.026;8.712;2023-03-01T04:39:45;-1.70;99.90
41678;DHT22;27364;49.026;8.712;2023-03-01T04:42:12;-1.70;99.90
41678;DHT22;27364;49.026;8.712;2023-03-01T04:44:38;-1.70;99.90
41678;DHT22;27364;49.026;8.712;2023-03-01T04:47:03;-1.70;99.90
41678;DHT22;27364;49.026;8.712;2023-03-01T04:49:29;-1.70;99.90
41678;DHT22;27364;49.026;8.712;2023-03-01T04:51:54;-1.70;99.90
41678;DHT22;27364;49.026;8.712;2023-03-01T04:54:20;-1.70;99.90
41678;DHT22;27364;49.026;8.712;2023-03-01T04:56:46;-1.80;99.90
41678;DHT22;27364;49.026;8.712;2023-03-01T04:59:11;-1.80;99.90
41678;DHT22;27364;49.026;8.712;2023-03-01T05:01:38;-1.80;99.90
41678;DHT22;27364;49.026;8.712;2023-03-01T05:04:03;-1.80;99.90
41678;DHT22;27364;49.026;8.712;2023-03-01T05:06:31;-1.80;99.90
41678;DHT22;27364;49.026;8.712;2023-03-01T05:08:57;-1.80;99.90
41678;DHT22;27364;49.026;8.712;2023-03-01T05:11:23;-1.80;99.90
41678;DHT22;27364;49.026;8.712;2023-03-01T05:13:48;-1.80;99.90
41678;DHT22;27364;49.026;8.712;2023-03-01T05:16:15;-1.80;99.90
41678;DHT22;27364;49.026;8.712;2023-03-01T05:18:42;-1.80;99.90
41678;DHT22;27364;49.026;8.712;2023-03-01T05:21:13;-1.70;99.90
41678;DHT22;27364;49.026;8.712;2023-03-01T05:23:41;-1.80;99.90
41678;DHT22;27364;49.026;8.712;2023-03-01T05:26:07;-1.90;99.90
41678;DHT22;27364;49.026;8.712;2023-03-01T05:28:33;-1.90;99.90
41678;DHT22;27364;49.026;8.712;2023-03-01T05:30:59;-1.80;99.90
41678;DHT22;27364;49.026;8.712;2023-03-01T05:33:25;-1.80;99.90
41678;DHT22;27364;49.026;8.712;2023-03-01T05:35:51;-1.80;99.90
41678;DHT22;27364;49.026;8.712;2023-03-01T05:38:18;-1.70;99.90
41678;DHT22;27364;49.026;8.712;2023-03-01T05:40:45;-1.70;99.90
41678;DHT22;27364;49.026;8.712;2023-03-01T05:43:13;-1.70;99.90
41678;DHT22;27364;49.026;8.712;2023-03-01T05:45:40;-1.70;99.90
41678;DHT22;27364;49.026;8.712;2023-03-01T05:48:06;-1.70;99.90
41678;DHT22;27364;49.026;8.712;2023-03-01T05:50:34;-1.70;99.90
41678;DHT22;27364;49.026;8.712;2023-03-01T05:53:04;-1.80;99.90
41678;DHT22;27364;49.026;8.712;2023-03-01T05:55:33;-1.80;99.90
41678;DHT22;27364;49.026;8.712;2023-03-01T05:58:00;-2.00;99.90
41678;DHT22;27364;49.026;8.712;2023-03-01T06:00:26;-2.10;99.90
41678;DHT22;27364;49.026;8.712;2023-03-01T06:02:54;-2.10;99.90
41678;DHT22;27364;49.026;8.712;2023-03-01T06:05:20;-2.20;99.90
41678;DHT22;27364;49.026;8.712;2023-03-01T06:07:46;-2.30;99.90
41678;DHT22;27364;49.026;8.712;2023-03-01T06:10:12;-2.40;99.90
41678;DHT22;27364;49.026;8.712;2023-03-01T06:12:39;-2.40;99.90
41678;DHT22;27364;49.026;8.712;2023-03-01T06:15:06;-2.40;99.90
41678;DHT22;27364;49.026;8.712;2023-03-01T06:17:33;-2.40;99.90
41678;DHT22;27364;49.026;8.712;2023-03-01T06:20:04;-2.30;99.90
41678;DHT22;27364;49.026;8.712;2023-03-01T06:22:30;-2.30;99.90
41678;DHT22;27364;49.026;8.712;2023-03-01T06:24:56;-2.30;99.90
41678;DHT22;27364;49.026;8.712;2023-03-01T06:27:21;-2.30;99.90
41678;DHT22;27364;49.026;8.712;2023-03-01T06:29:47;-2.20;99.90
41678;DHT22;27364;49.026;8.712;2023-03-01T06:32:12;-2.10;99.90
41678;DHT22;27364;49.026;8.712;2023-03-01T06:34:38;-1.90;99.90
41678;DHT22;27364;49.026;8.712;2023-03-01T06:37:03;-1.80;99.90
41678;DHT22;27364;49.026;8.712;2023-03-01T06:39:31;-1.70;99.90
41678;DHT22;27364;49.026;8.712;2023-03-01T06:41:56;-1.60;99.90
41678;DHT22;27364;49.026;8.712;2023-03-01T06:44:22;-1.50;99.90
41678;DHT22;27364;49.026;8.712;2023-03-01T06:46:47;-1.50;99.90
41678;DHT22;27364;49.026;8.712;2023-03-01T06:49:13;-1.40;99.90
41678;DHT22;27364;49.026;8.712;2023-03-01T06:51:38;-1.30;99.90
41678;DHT22;27364;49.026;8.712;2023-03-01T06:54:04;-1.30;99.90
41678;DHT22;27364;49.026;8.712;2023-03-01T06:56:31;-1.20;99.90
41678;DHT22;27364;49.026;8.712;2023-03-01T06:58:56;-1.20;99.90
41678;DHT22;27364;49.026;8.712;2023-03-01T07:01:22;-1.10;99.90
41678;DHT22;27364;49.026;8.712;2023-03-01T07:03:47;-1.10;99.90
41678;DHT22;27364;49.026;8.712;2023-03-01T07:06:13;-1.00;99.90
41678;DHT22;27364;49.026;8.712;2023-03-01T07:08:38;-0.90;99.90
41678;DHT22;27364;49.026;8.712;2023-03-01T07:11:04;-0.90;99.90
41678;DHT22;27364;49.026;8.712;2023-03-01T07:13:31;-0.80;99.90
41678;DHT22;27364;49.026;8.712;2023-03-01T07:15:56;-0.80;99.90
41678;DHT22;27364;49.026;8.712;2023-03-01T07:18:22;-0.70;99.90
41678;DHT22;27364;49.026;8.712;2023-03-01T07:20:48;-0.70;99.90
41678;DHT22;27364;49.026;8.712;2023-03-01T07:23:13;-0.60;99.90
41678;DHT22;27364;49.026;8.712;2023-03-01T07:25:39;-0.60;99.90
41678;DHT22;27364;49.026;8.712;2023-03-01T07:28:05;-0.60;99.90
41678;DHT22;27364;49.026;8.712;2023-03-01T07:30:31;-0.50;99.90
41678;DHT22;27364;49.026;8.712;2023-03-01T07:32:57;-0.50;99.90
41678;DHT22;27364;49.026;8.712;2023-03-01T07:35:25;-0.50;99.90
41678;DHT22;27364;49.026;8.712;2023-03-01T07:37:51;-0.50;99.90
41678;DHT22;27364;49.026;8.712;2023-03-01T07:40:16;-0.40;99.90
41678;DHT22;27364;49.026;8.712;2023-03-01T07:42:42;-0.30;99.90
41678;DHT22;27364;49.026;8.712;2023-03-01T07:45:08;-0.30;99.90
41678;DHT22;27364;49.026;8.712;2023-03-01T07:47:35;-0.20;99.90
41678;DHT22;27364;49.026;8.712;2023-03-01T07:50:00;-0.20;99.90
41678;DHT22;27364;49.026;8.712;2023-03-01T07:52:30;-0.10;99.90
41678;DHT22;27364;49.026;8.712;2023-03-01T07:54:56;0.00;99.90
41678;DHT22;27364;49.026;8.712;2023-03-01T07:57:22;0.00;99.90
41678;DHT22;27364;49.026;8.712;2023-03-01T07:59:47;0.10;99.90
41678;DHT22;27364;49.026;8.712;2023-03-01T08:02:14;0.10;99.90
41678;DHT22;27364;49.026;8.712;2023-03-01T08:04:41;0.20;99.90
41678;DHT22;27364;49.026;8.712;2023-03-01T08:07:06;0.20;99.90
41678;DHT22;27364;49.026;8.712;2023-03-01T08:09:34;0.30;99.90
41678;DHT22;27364;49.026;8.712;2023-03-01T08:12:00;0.30;99.90
41678;DHT22;27364;49.026;8.712;2023-03-01T08:14:26;0.40;99.90
41678;DHT22;27364;49.026;8.712;2023-03-01T08:16:52;0.40;99.90
41678;DHT22;27364;49.026;8.712;2023-03-01T08:19:17;0.50;99.90
41678;DHT22;27364;49.026;8.712;2023-03-01T08:21:43;0.50;99.90
41678;DHT22;27364;49.026;8.712;2023-03-01T08:24:08;0.60;99.90
41678;DHT22;27364;49.026;8.712;2023-03-01T08:26:35;0.60;99.90
41678;DHT22;27364;49.026;8.712;2023-03-01T08:29:03;0.70;99.90
41678;DHT22;27364;49.026;8.712;2023-03-01T08:33:59;0.70;99.90
41678;DHT22;27364;49.026;8.712;2023-03-01T08:36:30;0.80;99.90
41678;DHT22;27364;49.026;8.712;2023-03-01T08:38:56;0.80;99.90
41678;DHT22;27364;49.026;8.712;2023-03-01T08:41:22;0.90;99.90
41678;DHT22;27364;49.026;8.712;2023-03-01T08:43:49;1.00;99.90
41678;DHT22;27364;49.026;8.712;2023-03-01T08:46:14;1.00;99.90
41678;DHT22;27364;49.026;8.712;2023-03-01T08:48:40;1.10;99.90
41678;DHT22;27364;49.026;8.712;2023-03-01T08:51:14;1.20;99.90
41678;DHT22;27364;49.026;8.712;2023-03-01T08:53:41;1.20;99.90
41678;DHT22;27364;49.026;8.712;2023-03-01T08:56:07;1.30;99.90
41678;DHT22;27364;49.026;8.712;2023-03-01T08:58:33;1.40;99.90
41678;DHT22;27364;49.026;8.712;2023-03-01T09:00:59;1.50;99.90
41678;DHT22;27364;49.026;8.712;2023-03-01T09:03:26;1.50;99.90
41678;DHT22;27364;49.026;8.712;2023-03-01T09:05:52;1.60;99.90
41678;DHT22;27364;49.026;8.712;2023-03-01T09:08:18;1.60;99.90
41678;DHT22;27364;49.026;8.712;2023-03-01T09:10:44;1.70;99.90
41678;DHT22;27364;49.026;8.712;2023-03-01T09:13:10;1.80;99.90
41678;DHT22;27364;49.026;8.712;2023-03-01T09:15:39;1.80;99.90
41678;DHT22;27364;49.026;8.712;2023-03-01T09:18:05;1.90;99.90
41678;DHT22;27364;49.026;8.712;2023-03-01T09:20:31;2.00;99.90
41678;DHT22;27364;49.026;8.712;2023-03-01T09:22:58;2.10;99.90
41678;DHT22;27364;49.026;8.712;2023-03-01T09:25:24;2.20;99.90
41678;DHT22;27364;49.026;8.712;2023-03-01T09:27:54;2.30;99.90
41678;DHT22;27364;49.026;8.712;2023-03-01T09:30:20;2.40;99.90
41678;DHT22;27364;49.026;8.712;2023-03-01T09:32:46;2.50;99.90
41678;DHT22;27364;49.026;8.712;2023-03-01T09:35:12;2.70;99.90
41678;DHT22;27364;49.026;8.712;2023-03-01T09:37:38;2.80;99.90
41678;DHT22;27364;49.026;8.712;2023-03-01T09:40:06;2.90;99.90
41678;DHT22;27364;49.026;8.712;2023-03-01T09:42:34;3.10;99.90
41678;DHT22;27364;49.026;8.712;2023-03-01T09:45:14;3.30;99.90
41678;DHT22;27364;49.026;8.712;2023-03-01T09:47:45;3.40;99.90
41678;DHT22;27364;49.026;8.712;2023-03-01T09:50:16;3.50;99.90
41678;DHT22;27364;49.026;8.712;2023-03-01T09:53:06;3.70;99.90
41678;DHT22;27364;49.026;8.712;2023-03-01T09:55:40;3.80;99.90
41678;DHT22;27364;49.026;8.712;2023-03-01T10:00:47;4.10;98.60
41678;DHT22;27364;49.026;8.712;2023-03-01T10:03:26;4.20;98.30
41678;DHT22;27364;49.026;8.712;2023-03-01T10:06:08;4.50;98.40
41678;DHT22;27364;49.026;8.712;2023-03-01T10:08:55;4.60;98.00
41678;DHT22;27364;49.026;8.712;2023-03-01T10:11:28;4.80;96.30
41678;DHT22;27364;49.026;8.712;2023-03-01T10:14:01;4.90;96.20
41678;DHT22;27364;49.026;8.712;2023-03-01T10:16:59;5.00;95.50
41678;DHT22;27364;49.026;8.712;2023-03-01T10:23:09;5.30;94.90
41678;DHT22;27364;49.026;8.712;2023-03-01T10:25:39;5.40;94.20
41678;DHT22;27364;49.026;8.712;2023-03-01T10:28:17;5.50;94.00
41678;DHT22;27364;49.026;8.712;2023-03-01T10:30:44;5.60;92.90
41678;DHT22;27364;49.026;8.712;2023-03-01T10:33:49;5.70;92.90
41678;DHT22;27364;49.026;8.712;2023-03-01T10:36:20;5.80;92.00
41678;DHT22;27364;49.026;8.712;2023-03-01T10:38:57;5.90;92.60
41678;DHT22;27364;49.026;8.712;2023-03-01T10:41:24;6.10;91.60
41678;DHT22;27364;49.026;8.712;2023-03-01T10:43:57;6.20;90.90
41678;DHT22;27364;49.026;8.712;2023-03-01T10:46:35;6.40;91.00
41678;DHT22;27364;49.026;8.712;2023-03-01T10:51:43;6.60;89.40
41678;DHT22;27364;49.026;8.712;2023-03-01T10:56:53;6.80;87.20
41678;DHT22;27364;49.026;8.712;2023-03-01T10:59:26;6.90;84.40
41678;DHT22;27364;49.026;8.712;2023-03-01T11:04:35;7.10;85.00
41678;DHT22;27364;49.026;8.712;2023-03-01T11:07:02;7.20;83.20
41678;DHT22;27364;49.026;8.712;2023-03-01T11:09:32;7.40;83.40
41678;DHT22;27364;49.026;8.712;2023-03-01T11:12:03;7.50;82.50
41678;DHT22;27364;49.026;8.712;2023-03-01T11:14:36;7.60;83.70
41678;DHT22;27364;49.026;8.712;2023-03-01T11:19:28;7.80;80.00
41678;DHT22;27364;49.026;8.712;2023-03-01T11:24:40;7.90;77.80
41678;DHT22;27364;49.026;8.712;2023-03-01T11:30:04;8.20;78.30
41678;DHT22;27364;49.026;8.712;2023-03-01T11:32:38;8.20;76.40
41678;DHT22;27364;49.026;8.712;2023-03-01T11:35:20;8.30;77.00
41678;DHT22;27364;49.026;8.712;2023-03-01T11:40:40;8.60;75.40
41678;DHT22;27364;49.026;8.712;2023-03-01T11:43:15;9.00;75.60
41678;DHT22;27364;49.026;8.712;2023-03-01T11:45:56;9.00;73.30
41678;DHT22;27364;49.026;8.712;2023-03-01T11:48:32;9.10;73.20
41678;DHT22;27364;49.026;8.712;2023-03-01T11:51:09;9.30;72.60
41678;DHT22;27364;49.026;8.712;2023-03-01T11:53:46;9.50;71.90
41678;DHT22;27364;49.026;8.712;2023-03-01T12:01:51;9.70;69.60
41678;DHT22;27364;49.026;8.712;2023-03-01T12:04:44;9.90;68.30
41678;DHT22;27364;49.026;8.712;2023-03-01T12:10:25;10.00;68.20
41678;DHT22;27364;49.026;8.712;2023-03-01T12:16:07;10.10;68.20
41678;DHT22;27364;49.026;8.712;2023-03-01T12:19:13;10.00;65.40
41678;DHT22;27364;49.026;8.712;2023-03-01T12:21:54;10.10;65.70
41678;DHT22;27364;49.026;8.712;2023-03-01T12:24:42;10.20;65.70
41678;DHT22;27364;49.026;8.712;2023-03-01T12:30:22;10.30;66.00
41678;DHT22;27364;49.026;8.712;2023-03-01T12:33:14;10.30;64.70
41678;DHT22;27364;49.026;8.712;2023-03-01T12:38:42;10.40;64.50
41678;DHT22;27364;49.026;8.712;2023-03-01T12:41:32;10.50;64.80
41678;DHT22;27364;49.026;8.712;2023-03-01T12:49:28;10.70;64.30
41678;DHT22;27364;49.026;8.712;2023-03-01T12:52:00;10.70;63.40
41678;DHT22;27364;49.026;8.712;2023-03-01T12:54:30;10.70;62.70
41678;DHT22;27364;49.026;8.712;2023-03-01T12:56:59;10.60;62.50
41678;DHT22;27364;49.026;8.712;2023-03-01T12:59:39;10.60;63.50
41678;DHT22;27364;49.026;8.712;2023-03-01T13:02:23;10.60;62.40
41678;DHT22;27364;49.026;8.712;2023-03-01T13:04:53;10.60;62.70
41678;DHT22;27364;49.026;8.712;2023-03-01T13:07:30;10.70;63.60
41678;DHT22;27364;49.026;8.712;2023-03-01T13:17:47;10.70;61.40
41678;DHT22;27364;49.026;8.712;2023-03-01T13:20:15;10.70;61.70
41678;DHT22;27364;49.026;8.712;2023-03-01T13:22:42;10.80;61.90
41678;DHT22;27364;49.026;8.712;2023-03-01T13:25:19;10.70;62.00
41678;DHT22;27364;49.026;8.712;2023-03-01T13:27:46;10.80;62.40
41678;DHT22;27364;49.026;8.712;2023-03-01T13:36:00;10.90;59.80
41678;DHT22;27364;49.026;8.712;2023-03-01T13:41:07;11.10;59.60
41678;DHT22;27364;49.026;8.712;2023-03-01T13:43:38;11.20;59.60
41678;DHT22;27364;49.026;8.712;2023-03-01T13:46:23;11.30;59.60
41678;DHT22;27364;49.026;8.712;2023-03-01T13:48:58;11.10;58.70
41678;DHT22;27364;49.026;8.712;2023-03-01T13:51:26;11.20;59.50
41678;DHT22;27364;49.026;8.712;2023-03-01T13:53:53;11.10;58.60
41678;DHT22;27364;49.026;8.712;2023-03-01T13:56:27;11.20;59.80
41678;DHT22;27364;49.026;8.712;2023-03-01T13:58:54;11.30;59.00
41678;DHT22;27364;49.026;8.712;2023-03-01T14:01:43;11.30;59.00
41678;DHT22;27364;49.026;8.712;2023-03-01T14:04:27;11.20;59.20
41678;DHT22;27364;49.026;8.712;2023-03-01T14:07:12;11.20;59.90
41678;DHT22;27364;49.026;8.712;2023-03-01T14:09:44;11.30;59.10
41678;DHT22;27364;49.026;8.712;2023-03-01T14:20:27;11.30;58.80
41678;DHT22;27364;49.026;8.712;2023-03-01T14:22:56;11.40;58.30
41678;DHT22;27364;49.026;8.712;2023-03-01T14:28:25;11.20;58.40
41678;DHT22;27364;49.026;8.712;2023-03-01T14:30:53;11.20;57.60
41678;DHT22;27364;49.026;8.712;2023-03-01T14:33:31;11.20;57.50
41678;DHT22;27364;49.026;8.712;2023-03-01T14:36:08;11.20;58.30
41678;DHT22;27364;49.026;8.712;2023-03-01T14:38:38;11.30;58.30
41678;DHT22;27364;49.026;8.712;2023-03-01T14:41:22;11.20;57.70
41678;DHT22;27364;49.026;8.712;2023-03-01T14:43:55;11.30;57.90
41678;DHT22;27364;49.026;8.712;2023-03-01T14:48:54;11.20;57.30
41678;DHT22;27364;49.026;8.712;2023-03-01T14:51:21;11.30;57.70
41678;DHT22;27364;49.026;8.712;2023-03-01T14:53:47;11.20;57.40
41678;DHT22;27364;49.026;8.712;2023-03-01T14:56:14;11.10;57.40
41678;DHT22;27364;49.026;8.712;2023-03-01T14:58:43;11.00;57.20
41678;DHT22;27364;49.026;8.712;2023-03-01T15:01:14;11.10;57.50
41678;DHT22;27364;49.026;8.712;2023-03-01T15:03:46;11.10;57.90
41678;DHT22;27364;49.026;8.712;2023-03-01T15:06:18;11.10;57.80
41678;DHT22;27364;49.026;8.712;2023-03-01T15:08:47;11.00;56.90
41678;DHT22;27364;49.026;8.712;2023-03-01T15:11:25;10.90;57.70
41678;DHT22;27364;49.026;8.712;2023-03-01T15:13:52;10.90;58.20
41678;DHT22;27364;49.026;8.712;2023-03-01T15:16:24;10.90;58.40
41678;DHT22;27364;49.026;8.712;2023-03-01T15:18:54;10.80;57.20
41678;DHT22;27364;49.026;8.712;2023-03-01T15:21:38;10.70;56.70
41678;DHT22;27364;49.026;8.712;2023-03-01T15:26:58;10.70;58.30
41678;DHT22;27364;49.026;8.712;2023-03-01T15:29:29;10.70;58.40
41678;DHT22;27364;49.026;8.712;2023-03-01T15:32:01;10.70;58.20
41678;DHT22;27364;49.026;8.712;2023-03-01T15:34:36;10.60;57.70
41678;DHT22;27364;49.026;8.712;2023-03-01T15:37:04;10.60;57.90
41678;DHT22;27364;49.026;8.712;2023-03-01T15:39:53;10.60;58.00
41678;DHT22;27364;49.026;8.712;2023-03-01T15:42:37;10.50;59.00
41678;DHT22;27364;49.026;8.712;2023-03-01T15:45:19;10.40;58.60
41678;DHT22;27364;49.026;8.712;2023-03-01T15:47:51;10.30;58.40
41678;DHT22;27364;49.026;8.712;2023-03-01T15:50:22;10.20;59.20
41678;DHT22;27364;49.026;8.712;2023-03-01T15:52:49;10.20;58.70
41678;DHT22;27364;49.026;8.712;2023-03-01T15:58:04;10.10;58.60
41678;DHT22;27364;49.026;8.712;2023-03-01T16:00:30;10.10;58.80
41678;DHT22;27364;49.026;8.712;2023-03-01T16:02:55;10.00;58.60
41678;DHT22;27364;49.026;8.712;2023-03-01T16:05:23;9.90;59.40
41678;DHT22;27364;49.026;8.712;2023-03-01T16:07:49;9.90;58.80
41678;DHT22;27364;49.026;8.712;2023-03-01T16:10:15;9.80;58.50
41678;DHT22;27364;49.026;8.712;2023-03-01T16:12:41;9.60;59.00
41678;DHT22;27364;49.026;8.712;2023-03-01T16:15:18;9.50;59.40
41678;DHT22;27364;49.026;8.712;2023-03-01T16:17:44;9.50;59.90
41678;DHT22;27364;49.026;8.712;2023-03-01T16:20:10;9.40;59.90
41678;DHT22;27364;49.026;8.712;2023-03-01T16:22:35;9.30;60.30
41678;DHT22;27364;49.026;8.712;2023-03-01T16:25:01;9.30;60.50
41678;DHT22;27364;49.026;8.712;2023-03-01T16:27:27;9.20;59.80
41678;DHT22;27364;49.026;8.712;2023-03-01T16:29:53;9.10;61.00
41678;DHT22;27364;49.026;8.712;2023-03-01T16:32:18;9.10;60.80
41678;DHT22;27364;49.026;8.712;2023-03-01T16:34:44;9.00;61.30
41678;DHT22;27364;49.026;8.712;2023-03-01T16:37:09;8.90;60.90
41678;DHT22;27364;49.026;8.712;2023-03-01T16:39:38;8.80;60.80
41678;DHT22;27364;49.026;8.712;2023-03-01T16:42:03;8.70;61.70
41678;DHT22;27364;49.026;8.712;2023-03-01T16:44:29;8.60;62.20
41678;DHT22;27364;49.026;8.712;2023-03-01T16:46:55;8.40;62.10
41678;DHT22;27364;49.026;8.712;2023-03-01T16:49:20;8.30;63.10
41678;DHT22;27364;49.026;8.712;2023-03-01T16:51:46;8.20;63.60
41678;DHT22;27364;49.026;8.712;2023-03-01T16:54:11;8.00;63.40
41678;DHT22;27364;49.026;8.712;2023-03-01T16:56:37;7.90;64.10
41678;DHT22;27364;49.026;8.712;2023-03-01T16:59:04;7.80;64.10
41678;DHT22;27364;49.026;8.712;2023-03-01T17:01:30;7.70;65.30
41678;DHT22;27364;49.026;8.712;2023-03-01T17:04:03;7.60;65.20
41678;DHT22;27364;49.026;8.712;2023-03-01T17:06:29;7.50;65.30
41678;DHT22;27364;49.026;8.712;2023-03-01T17:08:54;7.40;65.70
41678;DHT22;27364;49.026;8.712;2023-03-01T17:11:20;7.30;66.20
41678;DHT22;27364;49.026;8.712;2023-03-01T17:13:46;7.20;66.30
41678;DHT22;27364;49.026;8.712;2023-03-01T17:16:15;7.10;66.80
41678;DHT22;27364;49.026;8.712;2023-03-01T17:18:42;7.00;67.00
41678;DHT22;27364;49.026;8.712;2023-03-01T17:21:08;7.00;67.70
41678;DHT22;27364;49.026;8.712;2023-03-01T17:23:36;6.90;67.80
41678;DHT22;27364;49.026;8.712;2023-03-01T17:26:03;6.80;67.80